Terminal Aerodrome Forecast
Issued by NWS Chicago, IL

Home | Current Version | Previous Version | Text Only | Print | Product List | Glossary On
Versions: 1 2 3 4 5 6 7 8 9 10 11 12 13 14 15 16 17 18 19 20 21 22 23 24 25 26 27 28 29 30 31 32 33 34 35
000
FTUS43 KLOT 040616 AAA
TAFRFD
TAF AMD
KRFD 040616Z 0406/0506 31015G29KT 4SM TSRA OVC040CB
     FM040900 VRB07KT 5SM -SHRA VCTS SCT020 OVC035CB
     FM041400 34007KT 6SM BR VCSH OVC015
     FM041600 03010KT P6SM VCSH OVC015
     FM041900 04010KT P6SM BKN035
     FM050000 07009KT P6SM BKN050=

USA.gov is the U.S. government's official web portal to all federal, state and local government web resources and services.